Time;durP1;ratioP1;P1;durP2;ratioP2;P2;SDS_P1;SDS_P2;PMS_P1;PMS_P2;Temp;Humidity;BMP_temperature;BMP_pressure;BME280_temperature;BME280_humidity;BME280_pressure;Samples;Min_cycle;Max_cycle;Signal;HPM_P1;HPM_P2
2021/08/23 00:00:21;;;;;;;24.55;16.92;;;16.80;99.90;;;;;;6156285;23;20162;-79
2021/08/23 00:02:48;;;;;;;16.02;13.85;;;16.80;99.90;;;;;;6155659;23;20207;-78
2021/08/23 00:05:15;;;;;;;17.10;13.18;;;16.80;99.90;;;;;;6156132;23;20168;-78
2021/08/23 00:07:43;;;;;;;17.10;15.18;;;16.80;99.90;;;;;;6156225;23;20565;-79
2021/08/23 00:10:12;;;;;;;18.33;14.88;;;16.80;99.90;;;;;;6155970;23;20168;-77
2021/08/23 00:12:40;;;;;;;16.42;14.60;;;16.80;99.90;;;;;;6155225;23;20210;-77
2021/08/23 00:15:09;;;;;;;20.75;14.57;;;16.80;99.90;;;;;;6155645;23;20168;-77
2021/08/23 00:17:36;;;;;;;19.33;15.13;;;16.80;99.90;;;;;;6155762;23;20188;-78
2021/08/23 00:20:05;;;;;;;18.08;15.00;;;16.80;99.90;;;;;;6156089;23;20161;-79
2021/08/23 00:22:35;;;;;;;18.58;14.77;;;16.80;99.90;;;;;;6154720;23;20226;-77
2021/08/23 00:25:04;;;;;;;18.85;14.48;;;16.80;99.90;;;;;;6155928;23;20175;-78
2021/08/23 00:27:32;;;;;;;18.83;15.50;;;16.80;99.90;;;;;;6154578;23;20177;-77
2021/08/23 00:30:00;;;;;;;15.63;14.00;;;16.80;99.90;;;;;;6156294;23;20417;-77
2021/08/23 00:32:27;;;;;;;17.88;13.65;;;16.80;99.90;;;;;;6156213;23;20206;-77
2021/08/23 00:34:57;;;;;;;21.93;16.43;;;16.90;99.90;;;;;;6156283;23;20576;-77
2021/08/23 00:37:25;;;;;;;16.65;14.82;;;16.90;99.90;;;;;;6155535;23;20433;-78
2021/08/23 00:39:52;;;;;;;19.90;14.48;;;16.80;99.90;;;;;;6155993;23;20172;-77
2021/08/23 00:42:19;;;;;;;16.58;13.73;;;16.80;99.90;;;;;;6154904;23;20208;-77
2021/08/23 00:44:48;;;;;;;16.80;14.05;;;16.80;99.90;;;;;;6155810;23;20169;-77
2021/08/23 00:47:17;;;;;;;21.02;16.38;;;16.80;99.90;;;;;;6155861;23;20598;-77
2021/08/23 00:49:44;;;;;;;20.15;14.45;;;16.80;99.90;;;;;;6155607;23;20507;-78
2021/08/23 00:52:11;;;;;;;19.80;15.88;;;16.70;99.90;;;;;;6155150;23;20685;-78
2021/08/23 00:54:38;;;;;;;17.10;14.82;;;16.70;99.90;;;;;;6157383;23;20175;-76
2021/08/23 00:57:06;;;;;;;25.40;16.10;;;16.70;99.90;;;;;;6163955;23;20193;-77
2021/08/23 00:59:36;;;;;;;19.40;14.25;;;16.70;99.90;;;;;;6156669;23;20263;-78
2021/08/23 01:02:12;;;;;;;20.27;14.20;;;16.70;99.90;;;;;;6154811;23;20173;-78
2021/08/23 01:04:48;;;;;;;20.98;16.63;;;16.70;99.90;;;;;;6155279;23;20166;-77
2021/08/23 01:07:18;;;;;;;14.77;12.93;;;16.70;99.90;;;;;;6155681;23;20163;-77
2021/08/23 01:09:53;;;;;;;17.50;13.88;;;16.70;99.90;;;;;;6154790;23;20164;-77
2021/08/23 01:12:20;;;;;;;20.55;15.40;;;16.60;99.90;;;;;;6154562;23;20210;-77
2021/08/23 01:14:49;;;;;;;16.98;14.15;;;16.70;99.90;;;;;;6155836;23;20170;-77
2021/08/23 01:17:16;;;;;;;16.00;13.17;;;16.70;99.90;;;;;;6155327;23;20530;-77
2021/08/23 01:19:47;;;;;;;17.30;14.32;;;16.60;99.90;;;;;;6154585;23;20399;-77
2021/08/23 01:22:15;;;;;;;14.75;13.15;;;16.60;99.90;;;;;;6155220;23;20589;-78
2021/08/23 01:24:45;;;;;;;17.85;15.73;;;16.60;99.90;;;;;;6155307;23;20223;-77
2021/08/23 01:27:14;;;;;;;18.83;14.50;;;16.60;99.90;;;;;;6155782;23;20183;-77
2021/08/23 01:30:04;;;;;;;20.08;15.40;;;16.50;99.90;;;;;;6156123;23;20400;-77
2021/08/23 01:32:34;;;;;;;23.08;15.35;;;16.50;99.90;;;;;;6155011;23;20206;-76
2021/08/23 01:35:03;;;;;;;17.83;13.68;;;16.50;99.90;;;;;;6156021;23;20176;-78
2021/08/23 01:37:33;;;;;;;17.88;14.40;;;16.50;99.90;;;;;;6155470;23;20185;-78
2021/08/23 01:40:00;;;;;;;19.70;14.60;;;16.40;99.90;;;;;;6156159;23;20532;-78
2021/08/23 01:42:27;;;;;;;21.52;16.00;;;16.40;99.90;;;;;;6154739;23;20236;-78
2021/08/23 01:44:54;;;;;;;22.65;15.63;;;16.40;99.90;;;;;;6155053;23;20168;-77
2021/08/23 01:47:21;;;;;;;19.00;16.40;;;16.40;99.90;;;;;;6155326;23;20162;-77
2021/08/23 01:49:50;;;;;;;23.75;17.52;;;16.40;99.90;;;;;;6154603;23;20192;-78
2021/08/23 01:52:17;;;;;;;26.27;16.95;;;16.40;99.90;;;;;;6154265;23;20199;-78
2021/08/23 01:54:45;;;;;;;23.33;16.80;;;16.40;99.90;;;;;;6155020;23;20164;-78
2021/08/23 01:57:14;;;;;;;22.17;15.90;;;16.40;99.90;;;;;;6155468;23;20188;-78
2021/08/23 01:59:41;;;;;;;22.13;16.58;;;16.40;99.90;;;;;;6154664;23;20403;-77
2021/08/23 02:02:08;;;;;;;23.48;18.70;;;16.30;99.90;;;;;;6154864;23;20210;-78
2021/08/23 02:04:37;;;;;;;21.92;16.75;;;16.40;99.90;;;;;;6155446;23;20168;-76
2021/08/23 02:07:05;;;;;;;28.83;18.77;;;16.30;99.90;;;;;;6155260;23;20597;-76
2021/08/23 02:09:32;;;;;;;17.63;15.27;;;16.30;99.90;;;;;;6155380;23;20162;-77
2021/08/23 02:11:59;;;;;;;21.08;16.75;;;16.30;99.90;;;;;;6153659;23;20246;-77
2021/08/23 02:14:27;;;;;;;24.95;17.63;;;16.40;99.90;;;;;;6155704;23;20171;-77
2021/08/23 02:16:54;;;;;;;23.55;19.52;;;16.40;99.90;;;;;;6155016;23;20165;-78
2021/08/23 02:19:22;;;;;;;26.40;19.52;;;16.40;99.90;;;;;;6155060;23;20181;-77
2021/08/23 02:21:51;;;;;;;20.10;18.00;;;16.40;99.90;;;;;;6154307;23;20611;-77
2021/08/23 02:24:22;;;;;;;25.73;17.13;;;16.40;99.90;;;;;;6155499;23;20178;-77
2021/08/23 02:26:50;;;;;;;25.55;17.85;;;16.40;99.90;;;;;;6155527;23;20178;-78
2021/08/23 02:29:17;;;;;;;21.20;17.45;;;16.40;99.90;;;;;;6155229;23;20617;-80
2021/08/23 02:31:44;;;;;;;28.45;20.48;;;16.40;99.90;;;;;;6154217;23;20166;-78
2021/08/23 02:34:11;;;;;;;26.70;19.45;;;16.40;99.90;;;;;;6154253;23;20675;-78
2021/08/23 02:36:39;;;;;;;28.77;19.02;;;16.40;99.90;;;;;;6154289;23;20172;-78
2021/08/23 02:39:08;;;;;;;25.33;18.67;;;16.40;99.90;;;;;;6155218;23;20192;-78
2021/08/23 02:41:36;;;;;;;27.13;18.50;;;16.40;99.90;;;;;;6154432;23;20223;-77
2021/08/23 02:44:04;;;;;;;29.13;19.25;;;16.40;99.90;;;;;;6155411;23;20221;-78
2021/08/23 02:46:31;;;;;;;22.85;16.73;;;16.30;99.90;;;;;;6155497;23;20174;-78
2021/08/23 02:48:58;;;;;;;22.20;19.27;;;16.30;99.90;;;;;;6156804;23;20163;-78
2021/08/23 02:51:25;;;;;;;24.40;15.95;;;16.30;99.90;;;;;;6157322;23;20197;-76
2021/08/23 02:53:52;;;;;;;25.55;19.10;;;16.30;99.90;;;;;;6164292;23;20199;-77
2021/08/23 02:56:19;;;;;;;28.40;20.10;;;16.30;99.90;;;;;;6158744;23;20162;-78
2021/08/23 02:58:48;;;;;;;25.33;16.58;;;16.30;99.90;;;;;;6155035;23;20189;-78
2021/08/23 03:01:15;;;;;;;23.00;17.48;;;16.30;99.90;;;;;;6154453;23;20613;-77
2021/08/23 03:03:48;;;;;;;28.95;18.80;;;16.30;99.90;;;;;;6155910;23;20544;-77
2021/08/23 03:06:15;;;;;;;24.70;16.65;;;16.20;99.90;;;;;;6155492;23;20173;-77
2021/08/23 03:08:42;;;;;;;22.35;18.25;;;16.20;99.90;;;;;;6155170;23;20166;-77
2021/08/23 03:11:11;;;;;;;25.02;18.35;;;16.20;99.90;;;;;;6156425;23;20175;-78
2021/08/23 03:13:39;;;;;;;21.42;15.82;;;16.20;99.90;;;;;;6156325;23;20213;-78
2021/08/23 03:16:08;;;;;;;22.42;16.75;;;16.20;99.90;;;;;;6156888;23;20182;-77
2021/08/23 03:18:35;;;;;;;21.23;17.55;;;16.20;99.90;;;;;;6156424;23;20218;-77
2021/08/23 03:21:02;;;;;;;28.52;19.95;;;16.30;99.90;;;;;;6156588;23;20171;-77
2021/08/23 03:23:30;;;;;;;28.35;18.25;;;16.20;99.90;;;;;;6155761;23;20204;-77
2021/08/23 03:25:58;;;;;;;23.90;17.38;;;16.30;99.90;;;;;;6156993;23;20499;-76
2021/08/23 03:28:25;;;;;;;21.58;17.00;;;16.30;99.90;;;;;;6157047;23;20164;-77
2021/08/23 03:30:52;;;;;;;26.35;16.48;;;16.30;99.90;;;;;;6156155;23;20163;-77
2021/08/23 03:33:21;;;;;;;19.92;14.63;;;16.30;99.90;;;;;;6155435;23;20198;-77
2021/08/23 03:35:48;;;;;;;20.10;17.70;;;16.30;99.90;;;;;;6155176;23;20171;-77
2021/08/23 03:38:16;;;;;;;21.02;15.63;;;16.20;99.90;;;;;;6155914;23;20190;-77
2021/08/23 03:40:43;;;;;;;22.88;14.95;;;16.30;99.90;;;;;;6156120;23;20165;-77
2021/08/23 03:43:12;;;;;;;20.80;14.73;;;16.30;99.90;;;;;;6155960;23;20207;-77
2021/08/23 03:45:40;;;;;;;19.23;13.52;;;16.30;99.90;;;;;;6156624;23;20164;-77
2021/08/23 03:48:07;;;;;;;23.20;16.40;;;16.30;99.90;;;;;;6157136;23;20183;-77
2021/08/23 03:50:36;;;;;;;15.73;13.60;;;16.30;99.90;;;;;;6141047;23;20271;-77
2021/08/23 03:53:03;;;;;;;21.98;16.30;;;16.30;99.90;;;;;;6125602;23;20694;-77
2021/08/23 03:55:30;;;;;;;16.73;14.32;;;16.30;99.90;;;;;;6127065;23;20169;-76
2021/08/23 03:57:58;;;;;;;19.58;14.73;;;16.30;99.90;;;;;;6126755;23;20188;-77
2021/08/23 04:00:25;;;;;;;20.83;16.17;;;16.20;99.90;;;;;;6127518;23;20218;-77
2021/08/23 04:02:52;;;;;;;15.13;13.05;;;16.20;99.90;;;;;;6125730;23;20661;-77
2021/08/23 04:05:19;;;;;;;21.38;14.70;;;16.20;99.90;;;;;;6126176;23;20164;-76
2021/08/23 04:07:48;;;;;;;20.10;14.93;;;16.20;99.90;;;;;;6127336;23;20164;-76
2021/08/23 04:10:15;;;;;;;19.35;13.98;;;16.20;99.90;;;;;;6126279;23;20170;-76
2021/08/23 04:12:42;;;;;;;18.52;13.35;;;16.20;99.90;;;;;;6125681;23;20669;-76
2021/08/23 04:15:10;;;;;;;18.30;14.48;;;16.10;99.90;;;;;;6126638;23;20174;-76
2021/08/23 04:17:38;;;;;;;20.55;13.63;;;16.10;99.90;;;;;;6126648;23;20495;-76
2021/08/23 04:20:06;;;;;;;20.80;13.15;;;16.10;99.90;;;;;;6125897;23;20599;-76
2021/08/23 04:22:34;;;;;;;17.80;14.07;;;16.00;99.90;;;;;;6125825;23;20204;-77
2021/08/23 04:25:02;;;;;;;16.23;13.43;;;16.00;99.90;;;;;;6126541;23;20244;-76
2021/08/23 04:27:29;;;;;;;22.10;16.05;;;16.00;99.90;;;;;;6126662;23;20440;-77
2021/08/23 04:29:56;;;;;;;21.13;14.18;;;16.00;99.90;;;;;;6126414;23;20172;-77
2021/08/23 04:32:24;;;;;;;22.70;14.65;;;15.90;99.90;;;;;;6125219;23;20221;-77
2021/08/23 04:34:51;;;;;;;16.23;14.25;;;15.90;99.90;;;;;;6126420;23;20545;-76
2021/08/23 04:37:18;;;;;;;20.98;15.30;;;16.00;99.90;;;;;;6124589;23;20166;-78
2021/08/23 04:39:47;;;;;;;16.15;14.43;;;15.90;99.90;;;;;;6126255;23;20189;-80
2021/08/23 04:42:16;;;;;;;24.73;17.25;;;16.00;99.90;;;;;;6125789;23;20623;-78
2021/08/23 04:44:44;;;;;;;20.83;16.38;;;16.00;99.90;;;;;;6126793;23;20162;-79
2021/08/23 04:47:11;;;;;;;19.63;16.48;;;16.10;99.90;;;;;;6126748;23;20220;-79
2021/08/23 04:49:39;;;;;;;20.85;16.60;;;16.20;99.90;;;;;;6130117;23;20249;-75
2021/08/23 04:52:07;;;;;;;19.20;14.75;;;16.30;99.90;;;;;;6156589;23;20237;-74
2021/08/23 04:54:34;;;;;;;19.10;15.45;;;16.40;99.90;;;;;;6155867;23;20172;-75
2021/08/23 04:57:01;;;;;;;22.45;16.58;;;16.40;99.90;;;;;;6155955;23;20528;-75
2021/08/23 04:59:30;;;;;;;17.17;15.35;;;16.50;99.90;;;;;;6155225;23;20195;-74
2021/08/23 05:01:57;;;;;;;13.10;10.70;;;16.60;99.90;;;;;;6155439;23;20169;-76
2021/08/23 05:04:24;;;;;;;13.90;10.80;;;16.60;99.90;;;;;;6156175;23;20595;-75
2021/08/23 05:06:51;;;;;;;17.23;11.43;;;16.60;99.90;;;;;;6158503;23;20164;-74
2021/08/23 05:09:20;;;;;;;18.90;14.82;;;16.70;99.90;;;;;;6159012;23;20182;-75
2021/08/23 05:11:48;;;;;;;16.95;14.52;;;16.80;99.90;;;;;;6163565;23;20171;-75
2021/08/23 05:14:15;;;;;;;17.33;12.35;;;16.80;99.90;;;;;;6165899;23;20490;-76
2021/08/23 05:16:43;;;;;;;15.18;11.85;;;16.90;99.90;;;;;;6166142;23;20248;-74
2021/08/23 05:19:10;;;;;;;20.20;13.90;;;17.10;99.90;;;;;;6167566;23;20188;-73
2021/08/23 05:21:37;;;;;;;21.92;16.77;;;17.20;99.90;;;;;;6159921;23;20169;-74
2021/08/23 05:24:05;;;;;;;12.67;9.50;;;17.40;99.90;;;;;;6160409;23;20211;-75
2021/08/23 05:26:32;;;;;;;16.73;10.80;;;17.60;99.90;;;;;;6160938;23;20405;-75
2021/08/23 05:29:04;;;;;;;14.10;8.23;;;17.80;99.90;;;;;;6161688;23;20389;-74
2021/08/23 05:31:31;;;;;;;11.17;7.17;;;18.10;99.90;;;;;;6159363;23;20393;-76
2021/08/23 05:34:00;;;;;;;9.93;8.40;;;18.40;99.90;;;;;;6157301;23;20424;-74
2021/08/23 05:36:27;;;;;;;9.23;8.10;;;18.70;99.90;;;;;;6156175;23;20388;-74
2021/08/23 05:38:54;;;;;;;12.37;7.00;;;18.90;99.90;;;;;;6154856;23;20467;-75
2021/08/23 05:41:21;;;;;;;12.53;7.90;;;18.90;99.90;;;;;;6155259;23;20403;-74
2021/08/23 05:43:49;;;;;;;10.67;8.53;;;19.00;99.90;;;;;;6155020;23;20444;-75
2021/08/23 05:46:20;;;;;;;14.00;8.77;;;19.20;99.90;;;;;;6155672;23;20389;-75
2021/08/23 05:48:48;;;;;;;11.57;8.63;;;19.60;99.90;;;;;;6155815;23;20397;-75
2021/08/23 05:51:16;;;;;;;12.43;7.10;;;19.80;99.90;;;;;;6155339;23;20966;-76
2021/08/23 05:53:44;;;;;;;10.67;8.60;;;20.20;99.90;;;;;;6154777;23;20432;-75
2021/08/23 05:56:11;;;;;;;12.83;9.07;;;20.40;99.90;;;;;;6156191;23;20394;-74
2021/08/23 05:58:39;;;;;;;12.00;9.80;;;20.50;99.90;;;;;;6157132;23;20420;-75
2021/08/23 06:01:06;;;;;;;11.70;9.07;;;20.60;99.90;;;;;;6155780;23;20395;-74
2021/08/23 06:03:34;;;;;;;9.77;6.77;;;20.70;99.90;;;;;;6153419;23;20429;-74
2021/08/23 06:06:04;;;;;;;9.67;6.20;;;20.80;99.90;;;;;;6155801;23;20398;-78
2021/08/23 06:08:34;;;;;;;12.50;5.70;;;20.80;99.90;;;;;;6155645;23;20398;-76
2021/08/23 06:11:01;;;;;;;7.97;5.13;;;20.90;99.90;;;;;;6155152;23;20478;-73
2021/08/23 06:13:28;;;;;;;8.30;6.17;;;21.30;99.90;;;;;;6153651;23;20462;-73
2021/08/23 06:15:57;;;;;;;7.27;4.83;;;21.20;99.90;;;;;;6154405;23;20411;-72
2021/08/23 06:18:25;;;;;;;5.17;4.67;;;21.40;99.90;;;;;;6154526;23;20396;-73
2021/08/23 06:20:53;;;;;;;7.43;5.63;;;21.50;99.90;;;;;;6153917;23;20540;-77
2021/08/23 06:23:20;;;;;;;11.20;5.80;;;21.40;99.90;;;;;;6154435;23;20508;-71
2021/08/23 06:25:50;;;;;;;6.70;4.70;;;21.60;99.90;;;;;;6155143;23;20403;-73
2021/08/23 06:28:19;;;;;;;5.77;4.67;;;21.70;99.90;;;;;;6154192;23;20403;-71
2021/08/23 06:30:46;;;;;;;7.30;4.80;;;21.80;99.90;;;;;;6154773;23;20401;-72
2021/08/23 06:33:14;;;;;;;7.50;4.90;;;21.80;99.90;;;;;;6153659;23;20459;-72
2021/08/23 06:35:41;;;;;;;8.23;5.50;;;21.80;99.90;;;;;;6152789;23;20401;-71
2021/08/23 06:38:08;;;;;;;5.87;4.67;;;21.50;99.90;;;;;;6155339;23;20778;-71
2021/08/23 06:40:36;;;;;;;9.77;5.40;;;21.30;99.90;;;;;;6153868;23;20437;-72
2021/08/23 06:43:05;;;;;;;9.20;5.27;;;20.90;99.90;;;;;;6153887;23;20921;-72
2021/08/23 06:45:32;;;;;;;6.80;5.40;;;20.70;99.90;;;;;;6156583;23;20871;-71
2021/08/23 06:47:59;;;;;;;6.53;5.40;;;20.50;99.90;;;;;;6156473;23;20400;-72
2021/08/23 06:50:26;;;;;;;6.90;5.03;;;20.30;99.90;;;;;;6156643;23;20422;-72
2021/08/23 06:52:53;;;;;;;5.17;4.67;;;19.90;99.90;;;;;;6155683;23;20830;-71
2021/08/23 06:55:21;;;;;;;8.63;4.07;;;19.80;99.90;;;;;;6157124;23;20399;-70
2021/08/23 06:57:48;;;;;;;6.87;4.67;;;19.80;99.90;;;;;;6156521;23;21157;-70
2021/08/23 07:00:17;;;;;;;9.30;4.00;;;19.90;99.90;;;;;;6156147;23;20761;-69
2021/08/23 07:02:44;;;;;;;7.60;5.00;;;20.00;99.90;;;;;;6155982;23;20425;-69
2021/08/23 07:05:11;;;;;;;7.83;6.30;;;20.00;99.90;;;;;;6156407;23;20408;-69
2021/08/23 07:07:38;;;;;;;8.97;7.40;;;19.90;99.90;;;;;;6156135;23;20401;-71
2021/08/23 07:10:08;;;;;;;7.77;6.20;;;19.80;99.90;;;;;;6156933;23;20395;-71
2021/08/23 07:12:36;;;;;;;5.63;4.90;;;19.80;99.90;;;;;;6155825;23;20428;-70
2021/08/23 07:15:03;;;;;;;5.70;5.10;;;19.80;99.90;;;;;;6156859;23;20392;-70
2021/08/23 07:17:32;;;;;;;6.13;4.40;;;19.80;99.90;;;;;;6155280;23;20448;-71
2021/08/23 07:19:59;;;;;;;5.50;3.67;;;20.00;99.90;;;;;;6154659;23;20495;-71
2021/08/23 07:22:27;;;;;;;7.20;4.83;;;20.00;99.90;;;;;;6155979;23;20436;-71
2021/08/23 07:24:54;;;;;;;5.70;4.20;;;20.10;99.90;;;;;;6156910;23;20416;-70
2021/08/23 07:27:22;;;;;;;6.43;4.50;;;20.10;99.90;;;;;;6156100;23;20737;-70
2021/08/23 07:29:51;;;;;;;6.90;3.63;;;20.10;99.90;;;;;;6156674;23;20381;-70
2021/08/23 07:32:18;;;;;;;5.13;3.93;;;20.10;99.90;;;;;;6155586;23;20434;-71
2021/08/23 07:34:49;;;;;;;4.13;3.40;;;20.20;99.90;;;;;;6154801;23;20398;-71
2021/08/23 07:37:16;;;;;;;5.30;4.30;;;20.10;99.90;;;;;;6155447;23;20467;-70
2021/08/23 07:39:44;;;;;;;5.90;3.63;;;20.10;99.90;;;;;;6155673;23;20448;-69
2021/08/23 07:42:11;;;;;;;6.30;4.53;;;20.20;99.90;;;;;;6155255;23;21046;-70
2021/08/23 07:44:38;;;;;;;7.67;3.40;;;20.40;99.90;;;;;;6156562;23;20402;-71
2021/08/23 07:47:06;;;;;;;7.20;3.83;;;20.50;99.90;;;;;;6156446;23;20736;-70
2021/08/23 07:49:33;;;;;;;6.10;4.40;;;20.40;99.90;;;;;;6156005;23;20404;-71
2021/08/23 07:52:02;;;;;;;4.87;3.47;;;20.30;99.90;;;;;;6155615;23;20404;-70
2021/08/23 07:54:32;;;;;;;5.83;2.83;;;20.30;99.90;;;;;;6155665;23;20389;-70
2021/08/23 07:56:59;;;;;;;7.10;4.13;;;20.20;99.90;;;;;;6156162;23;20408;-68
2021/08/23 07:59:26;;;;;;;6.77;3.50;;;20.30;99.90;;;;;;6156086;23;20428;-71
2021/08/23 08:01:53;;;;;;;4.10;3.33;;;20.30;99.90;;;;;;6156040;23;20725;-70
2021/08/23 08:04:21;;;;;;;4.67;3.00;;;20.40;99.90;;;;;;6156157;23;20393;-70
2021/08/23 08:06:49;;;;;;;6.23;3.53;;;20.70;99.90;;;;;;6155855;23;20892;-71
2021/08/23 08:09:17;;;;;;;4.90;3.40;;;20.70;99.90;;;;;;6156506;23;20402;-70
2021/08/23 08:11:44;;;;;;;4.33;2.90;;;21.00;99.90;;;;;;6154942;23;20401;-70
2021/08/23 08:14:12;;;;;;;7.07;2.87;;;21.20;99.90;;;;;;6156169;23;20458;-70
2021/08/23 08:16:39;;;;;;;3.10;2.33;;;21.50;99.90;;;;;;6155789;23;20393;-70
2021/08/23 08:19:06;;;;;;;3.20;2.30;;;22.20;99.90;;;;;;6155960;23;20700;-70
2021/08/23 08:21:33;;;;;;;4.87;2.80;;;22.90;99.90;;;;;;6155686;23;20473;-70
2021/08/23 08:24:01;;;;;;;6.13;3.20;;;22.90;99.90;;;;;;6155234;23;20429;-71
2021/08/23 08:26:30;;;;;;;10.53;2.80;;;22.80;99.90;;;;;;6155619;23;20480;-71
2021/08/23 08:28:57;;;;;;;7.37;3.17;;;23.00;99.90;;;;;;6155380;23;20407;-71
2021/08/23 08:31:24;;;;;;;5.80;3.27;;;23.50;99.90;;;;;;6155288;23;20397;-71
2021/08/23 08:33:51;;;;;;;11.70;2.73;;;24.00;99.90;;;;;;6154508;23;20432;-71
2021/08/23 08:36:19;;;;;;;5.63;2.23;;;25.80;99.90;;;;;;6155748;23;20400;-71
2021/08/23 08:38:48;;;;;;;4.20;2.30;;;26.90;99.60;;;;;;6155648;23;20433;-70
2021/08/23 08:41:15;;;;;;;4.70;2.60;;;27.30;95.50;;;;;;6155557;23;20429;-70
2021/08/23 08:43:44;;;;;;;4.87;2.60;;;27.30;95.10;;;;;;6155299;23;20511;-72
2021/08/23 08:46:12;;;;;;;5.80;2.90;;;27.00;94.30;;;;;;6155314;23;20401;-71
2021/08/23 08:48:40;;;;;;;7.03;3.20;;;26.20;96.40;;;;;;6155288;23;20396;-71
2021/08/23 08:51:09;;;;;;;8.30;4.37;;;25.90;96.80;;;;;;6155477;23;20438;-71
2021/08/23 08:53:37;;;;;;;4.40;2.93;;;25.20;97.90;;;;;;6154274;23;20432;-71
2021/08/23 08:56:04;;;;;;;8.33;3.40;;;24.70;98.70;;;;;;6155174;23;20397;-69
2021/08/23 08:58:32;;;;;;;6.77;3.20;;;24.20;99.90;;;;;;6155112;23;20409;-69
2021/08/23 09:01:02;;;;;;;5.43;2.67;;;23.80;99.90;;;;;;6155256;23;20511;-70
2021/08/23 09:03:30;;;;;;;4.20;2.30;;;23.60;99.90;;;;;;6153892;23;20436;-70
2021/08/23 09:06:03;;;;;;;7.43;2.57;;;23.90;99.90;;;;;;6154423;23;20403;-70
2021/08/23 09:08:30;;;;;;;1.90;1.40;;;25.30;99.30;;;;;;6154730;23;20400;-70
2021/08/23 09:10:58;;;;;;;4.03;2.60;;;26.60;96.20;;;;;;6154754;23;20916;-70
2021/08/23 09:13:26;;;;;;;6.73;4.33;;;27.60;94.30;;;;;;6155010;23;20479;-69
2021/08/23 09:15:55;;;;;;;3.00;1.83;;;28.50;93.90;;;;;;6154792;23;20397;-70
2021/08/23 09:18:27;;;;;;;4.90;2.20;;;29.60;90.30;;;;;;6154889;23;20865;-70
2021/08/23 09:20:59;;;;;;;5.03;2.70;;;30.10;88.50;;;;;;6154325;23;20864;-70
2021/08/23 09:23:38;;;;;;;5.00;3.17;;;30.70;85.90;;;;;;6154024;23;20428;-70
2021/08/23 09:26:10;;;;;;;3.27;2.43;;;31.20;84.30;;;;;;6153568;23;20860;-70
2021/08/23 09:28:38;;;;;;;2.80;1.67;;;31.40;83.40;;;;;;6154481;23;20447;-70
2021/08/23 09:31:10;;;;;;;4.87;2.03;;;32.10;81.10;;;;;;6154591;23;20393;-70
2021/08/23 09:33:47;;;;;;;4.23;1.97;;;32.40;78.40;;;;;;6153838;23;20440;-70
2021/08/23 09:36:19;;;;;;;4.10;2.20;;;32.60;78.40;;;;;;6153510;23;20393;-70
2021/08/23 09:39:02;;;;;;;5.20;2.40;;;32.80;77.70;;;;;;6154084;23;20466;-70
2021/08/23 09:41:30;;;;;;;4.60;2.10;;;33.20;76.50;;;;;;6153972;23;20428;-70
2021/08/23 09:44:05;;;;;;;11.30;2.90;;;33.40;74.40;;;;;;6154288;23;20436;-70
2021/08/23 09:46:33;;;;;;;3.33;1.90;;;33.30;74.90;;;;;;6154805;23;20804;-70
2021/08/23 09:49:04;;;;;;;6.23;1.90;;;33.10;73.30;;;;;;6154295;23;20393;-69
2021/08/23 09:51:36;;;;;;;6.03;1.90;;;33.10;72.50;;;;;;6154281;23;20443;-70
2021/08/23 09:54:11;;;;;;;5.50;2.40;;;32.90;73.10;;;;;;6153802;23;20437;-70
2021/08/23 09:56:44;;;;;;;7.33;2.33;;;33.00;73.30;;;;;;6154883;23;20392;-70
2021/08/23 09:59:15;;;;;;;3.27;2.27;;;33.20;72.60;;;;;;6154791;23;20426;-70
2021/08/23 10:01:42;;;;;;;3.87;1.60;;;32.90;71.50;;;;;;6154177;23;20428;-70
2021/08/23 10:04:12;;;;;;;4.63;3.07;;;32.60;71.30;;;;;;6153939;23;20456;-70
2021/08/23 10:06:40;;;;;;;7.67;2.00;;;32.20;73.50;;;;;;6154256;23;20447;-70
2021/08/23 10:09:08;;;;;;;4.13;1.60;;;32.20;72.50;;;;;;6154631;23;20404;-70
2021/08/23 10:11:36;;;;;;;4.20;2.30;;;32.20;74.40;;;;;;6154660;23;20388;-70
2021/08/23 10:14:04;;;;;;;3.23;1.33;;;31.80;72.40;;;;;;6153268;23;20427;-69
2021/08/23 10:16:33;;;;;;;2.70;1.90;;;31.20;73.70;;;;;;6153580;23;20399;-70
2021/08/23 10:19:00;;;;;;;2.50;1.60;;;30.60;75.90;;;;;;6154309;23;20397;-70
2021/08/23 10:21:30;;;;;;;4.03;1.40;;;30.30;76.10;;;;;;6154510;23;20511;-69
2021/08/23 10:23:58;;;;;;;5.77;2.00;;;30.40;76.70;;;;;;6153625;23;20439;-70
2021/08/23 10:26:26;;;;;;;2.00;1.50;;;30.60;76.10;;;;;;6154229;23;20874;-69
2021/08/23 10:28:55;;;;;;;5.03;1.50;;;29.90;76.50;;;;;;6154731;23;20403;-69
2021/08/23 10:31:23;;;;;;;3.17;1.93;;;29.80;74.70;;;;;;6154581;23;20833;-70
2021/08/23 10:33:51;;;;;;;2.63;1.40;;;29.40;76.90;;;;;;6153156;23;20433;-69
2021/08/23 10:36:18;;;;;;;3.70;1.67;;;29.20;77.80;;;;;;6153532;23;20393;-70
2021/08/23 10:38:49;;;;;;;3.73;1.57;;;29.10;77.50;;;;;;6153806;23;20393;-69
2021/08/23 10:41:18;;;;;;;2.97;2.10;;;28.70;78.40;;;;;;6154055;23;20432;-69
2021/08/23 10:43:48;;;;;;;3.47;1.40;;;28.20;80.50;;;;;;6153930;23;20428;-69
2021/08/23 10:46:27;;;;;;;3.10;1.60;;;27.90;81.70;;;;;;6154715;23;20419;-69
2021/08/23 10:48:55;;;;;;;3.83;1.43;;;27.80;84.50;;;;;;6154301;23;20876;-70
2021/08/23 10:51:31;;;;;;;7.93;1.87;;;27.70;81.20;;;;;;6153762;23;20416;-69
2021/08/23 10:54:02;;;;;;;3.13;1.57;;;27.10;82.70;;;;;;6153993;23;20551;-70
2021/08/23 10:56:37;;;;;;;2.70;1.43;;;27.40;84.10;;;;;;6154776;23;20722;-70
2021/08/23 10:59:16;;;;;;;2.83;1.30;;;27.60;86.80;;;;;;6154773;23;20392;-70
2021/08/23 11:01:54;;;;;;;3.37;1.23;;;27.80;84.60;;;;;;6153798;23;20811;-70
2021/08/23 11:04:32;;;;;;;1.50;1.17;;;27.60;84.40;;;;;;6154472;23;20393;-70
2021/08/23 11:07:00;;;;;;;4.97;1.63;;;27.30;84.20;;;;;;6154074;23;20744;-70
2021/08/23 11:09:40;;;;;;;1.73;1.20;;;27.30;84.20;;;;;;6154267;23;20392;-69
2021/08/23 11:12:16;;;;;;;4.50;2.30;;;27.30;82.70;;;;;;6153593;23;20425;-70
2021/08/23 11:14:51;;;;;;;3.93;1.67;;;27.20;80.60;;;;;;6153835;23;20954;-71
2021/08/23 11:17:30;;;;;;;3.90;1.37;;;27.00;81.90;;;;;;6154254;23;20396;-70
2021/08/23 11:19:57;;;;;;;3.03;1.23;;;26.50;80.20;;;;;;6154003;23;20495;-70
2021/08/23 11:22:25;;;;;;;2.00;1.23;;;26.30;80.50;;;;;;6153710;23;20432;-70
2021/08/23 11:24:55;;;;;;;2.60;1.73;;;26.40;80.60;;;;;;6154091;23;20421;-70
2021/08/23 11:27:23;;;;;;;2.30;1.53;;;26.40;81.50;;;;;;6154330;23;20741;-70
2021/08/23 11:29:54;;;;;;;3.63;1.57;;;26.40;82.80;;;;;;6154505;23;20393;-70
2021/08/23 11:32:27;;;;;;;11.03;1.93;;;26.40;81.90;;;;;;6155077;23;20746;-70
2021/08/23 11:34:55;;;;;;;2.80;1.53;;;26.30;82.50;;;;;;6155881;23;20451;-70
2021/08/23 11:37:25;;;;;;;1.93;1.40;;;26.30;84.60;;;;;;6154741;23;20399;-70
2021/08/23 11:40:07;;;;;;;6.30;1.53;;;26.10;83.50;;;;;;6155838;23;20392;-70
2021/08/23 11:42:34;;;;;;;7.30;2.00;;;25.90;84.80;;;;;;6155038;23;20442;-70
2021/08/23 11:45:02;;;;;;;2.90;1.53;;;25.80;83.20;;;;;;6155942;23;20396;-70
2021/08/23 11:47:33;;;;;;;4.80;1.90;;;25.70;82.20;;;;;;6156160;23;20726;-70
2021/08/23 11:50:01;;;;;;;2.30;1.17;;;25.60;82.70;;;;;;6155828;23;21035;-69
2021/08/23 11:52:30;;;;;;;3.00;1.77;;;25.50;82.50;;;;;;6155352;23;20437;-70
2021/08/23 11:54:58;;;;;;;3.90;1.70;;;25.40;84.30;;;;;;6156033;23;20404;-70
2021/08/23 11:57:28;;;;;;;3.13;1.57;;;25.50;85.00;;;;;;6156092;23;20396;-69
2021/08/23 12:00:00;;;;;;;3.07;1.43;;;25.40;82.20;;;;;;6154929;23;20432;-70
2021/08/23 12:02:34;;;;;;;2.10;1.57;;;25.50;82.40;;;;;;6154715;23;20439;-70
2021/08/23 12:05:09;;;;;;;3.80;1.70;;;25.30;82.10;;;;;;6155135;23;20447;-69
2021/08/23 12:08:03;;;;;;;3.10;1.73;;;25.10;81.30;;;;;;6155283;23;20397;-70
2021/08/23 12:10:31;;;;;;;2.80;1.53;;;25.00;81.10;;;;;;6155639;23;20445;-69
2021/08/23 12:13:17;;;;;;;3.17;1.80;;;25.20;81.70;;;;;;6154848;23;20429;-69
2021/08/23 12:15:52;;;;;;;2.97;1.70;;;25.20;80.80;;;;;;6155652;23;20481;-69
2021/08/23 12:18:20;;;;;;;3.93;2.40;;;25.30;80.60;;;;;;6155708;23;20392;-70
2021/08/23 12:21:06;;;;;;;2.93;1.53;;;25.40;80.30;;;;;;6155011;23;20833;-69
2021/08/23 12:23:45;;;;;;;5.33;2.33;;;25.40;79.90;;;;;;6154277;23;20935;-71
2021/08/23 12:26:14;;;;;;;2.73;2.00;;;25.50;79.30;;;;;;6155318;23;20384;-69
2021/08/23 12:28:49;;;;;;;4.13;2.13;;;25.40;79.50;;;;;;6154536;23;20476;-69
2021/08/23 12:31:17;;;;;;;3.20;2.33;;;25.10;79.30;;;;;;6155654;23;20471;-71
2021/08/23 12:33:44;;;;;;;2.67;2.00;;;24.90;81.10;;;;;;6154754;23;20424;-70
2021/08/23 12:36:12;;;;;;;4.60;2.40;;;25.00;81.20;;;;;;6155489;23;20799;-69
2021/08/23 12:38:40;;;;;;;4.10;2.30;;;25.00;80.60;;;;;;6155202;23;20389;-69
2021/08/23 12:41:07;;;;;;;4.90;2.90;;;25.10;79.30;;;;;;6155105;23;20516;-69
2021/08/23 12:43:36;;;;;;;4.90;2.60;;;25.20;79.20;;;;;;6154179;23;20464;-69
2021/08/23 12:46:05;;;;;;;7.10;2.40;;;25.40;77.60;;;;;;6154498;23;20872;-69